createdAt,value
2023-04-16T00:02:23.615Z,98.44
2023-04-16T00:04:51.778Z,98.46
2023-04-16T00:07:20.118Z,98.44
2023-04-16T00:09:49.178Z,98.48
2023-04-16T00:12:17.596Z,98.47
2023-04-16T00:14:47.909Z,98.46
2023-04-16T00:17:17.606Z,98.47
2023-04-16T00:19:46.185Z,98.45
2023-04-16T00:22:14.412Z,98.49
2023-04-16T00:24:42.803Z,98.51
2023-04-16T00:27:11.447Z,98.49
2023-04-16T00:29:39.535Z,98.46
2023-04-16T00:32:09.900Z,98.46
2023-04-16T00:34:38.859Z,98.45
2023-04-16T00:37:07.205Z,98.49
2023-04-16T00:39:35.572Z,98.47
2023-04-16T00:42:04.414Z,98.44
2023-04-16T00:44:35.454Z,98.41
2023-04-16T00:47:04.175Z,98.43
2023-04-16T00:49:35.152Z,98.44
2023-04-16T00:52:04.358Z,98.43
2023-04-16T00:54:32.854Z,98.44
2023-04-16T00:57:03.838Z,98.47
2023-04-16T00:59:32.599Z,98.46
2023-04-16T01:02:00.945Z,98.42
2023-04-16T01:04:31.057Z,98.47
2023-04-16T01:07:01.075Z,98.43
2023-04-16T01:09:33.891Z,98.45
2023-04-16T01:12:03.498Z,98.41
2023-04-16T01:14:38.153Z,98.43
2023-04-16T01:17:07.441Z,98.41
2023-04-16T01:19:37.148Z,98.42
2023-04-16T01:22:07.817Z,98.44
2023-04-16T01:24:36.576Z,98.42
2023-04-16T01:27:04.808Z,98.43
2023-04-16T01:29:33.254Z,98.44
2023-04-16T01:32:01.861Z,98.46
2023-04-16T01:34:32.921Z,98.44
2023-04-16T01:37:01.205Z,98.44
2023-04-16T01:39:30.942Z,98.45
2023-04-16T01:42:00.901Z,98.42
2023-04-16T01:44:30.927Z,98.43
2023-04-16T01:46:59.370Z,98.44
2023-04-16T01:49:28.017Z,98.48
2023-04-16T01:51:58.286Z,98.46
2023-04-16T01:54:26.472Z,98.40
2023-04-16T01:56:58.410Z,98.42
2023-04-16T01:59:26.603Z,98.46
2023-04-16T02:01:55.459Z,98.46
2023-04-16T02:04:23.595Z,98.44
2023-04-16T02:06:51.746Z,98.46
2023-04-16T02:09:19.813Z,98.43
2023-04-16T02:11:49.465Z,98.41
2023-04-16T02:14:19.760Z,98.42
2023-04-16T02:16:48.474Z,98.45
2023-04-16T02:19:16.685Z,98.44
2023-04-16T02:21:45.106Z,98.41
2023-04-16T02:24:13.095Z,98.38
2023-04-16T02:26:41.416Z,98.39
2023-04-16T02:29:10.022Z,98.43
2023-04-16T02:31:39.693Z,98.41
2023-04-16T02:34:08.051Z,98.42
2023-04-16T02:36:37.082Z,98.39
2023-04-16T02:39:07.342Z,98.40
2023-04-16T02:41:36.035Z,98.44
2023-04-16T02:44:04.032Z,98.39
2023-04-16T02:46:32.142Z,98.40
2023-04-16T02:49:05.194Z,98.36
2023-04-16T02:51:33.706Z,98.38
2023-04-16T02:54:03.097Z,98.36
2023-04-16T02:56:31.673Z,98.31
2023-04-16T02:59:01.686Z,98.36
2023-04-16T03:01:30.364Z,98.38
2023-04-16T03:03:58.717Z,98.34
2023-04-16T03:06:33.822Z,98.35
2023-04-16T03:09:02.642Z,98.35
2023-04-16T03:11:31.310Z,98.34
2023-04-16T03:14:00.562Z,98.32
2023-04-16T03:16:35.620Z,98.34
2023-04-16T03:19:04.787Z,98.31
2023-04-16T03:21:40.356Z,98.29
2023-04-16T03:24:11.500Z,98.32
2023-04-16T03:26:47.519Z,98.28
2023-04-16T03:29:19.497Z,98.34
2023-04-16T03:31:49.301Z,98.32
2023-04-16T03:34:18.146Z,98.30
2023-04-16T03:36:50.369Z,98.38
2023-04-16T03:39:23.631Z,98.33
2023-04-16T03:41:51.736Z,98.29
2023-04-16T03:44:20.329Z,98.33
2023-04-16T03:46:48.456Z,98.30
2023-04-16T03:49:34.187Z,98.34
2023-04-16T03:52:03.681Z,98.35
2023-04-16T03:54:32.364Z,98.32
2023-04-16T03:57:01.093Z,98.32
2023-04-16T03:59:32.244Z,98.35
2023-04-16T04:02:00.497Z,98.31
2023-04-16T04:04:30.040Z,98.35
2023-04-16T04:06:58.128Z,98.38
2023-04-16T04:09:29.760Z,98.36
2023-04-16T04:12:00.961Z,98.35
2023-04-16T04:14:30.526Z,98.36
2023-04-16T04:16:58.858Z,98.36
2023-04-16T04:19:27.185Z,98.40
2023-04-16T04:21:55.408Z,98.37
2023-04-16T04:24:23.796Z,98.35
2023-04-16T04:26:55.048Z,98.40
2023-04-16T04:29:26.888Z,98.34
2023-04-16T04:31:55.279Z,98.36
2023-04-16T04:34:35.003Z,98.37
2023-04-16T04:37:03.079Z,98.34
2023-04-16T04:39:32.248Z,98.31
2023-04-16T04:42:03.189Z,98.31
2023-04-16T04:44:32.293Z,98.37
2023-04-16T04:47:00.902Z,98.31
2023-04-16T04:49:32.949Z,98.33
2023-04-16T04:52:01.360Z,98.39
2023-04-16T04:54:30.424Z,98.38
2023-04-16T04:56:58.861Z,98.33
2023-04-16T04:59:28.272Z,98.39
2023-04-16T05:01:56.618Z,98.43
2023-04-16T05:04:24.963Z,98.43
2023-04-16T05:06:55.163Z,98.43
2023-04-16T05:09:23.764Z,98.42
2023-04-16T05:11:55.812Z,98.43
2023-04-16T05:14:24.054Z,98.44
2023-04-16T05:16:55.093Z,98.42
2023-04-16T05:19:25.060Z,98.40
2023-04-16T05:21:53.361Z,98.43
2023-04-16T05:24:22.429Z,98.44
2023-04-16T05:26:50.662Z,98.45
2023-04-16T05:29:19.478Z,98.46
2023-04-16T05:31:52.063Z,98.47
2023-04-16T05:34:33.788Z,98.50
2023-04-16T05:37:15.009Z,98.51
2023-04-16T05:39:51.688Z,98.47
2023-04-16T05:42:22.231Z,98.52
2023-04-16T05:44:54.649Z,98.50
2023-04-16T05:47:24.697Z,98.53
2023-04-16T05:49:54.509Z,98.52
2023-04-16T05:52:26.990Z,98.52
2023-04-16T05:54:58.569Z,98.51
2023-04-16T05:57:29.690Z,98.45
2023-04-16T05:59:59.464Z,98.48
2023-04-16T06:02:31.541Z,98.47
2023-04-16T06:05:05.401Z,98.50
2023-04-16T06:07:34.801Z,98.56
2023-04-16T06:10:04.231Z,98.51
2023-04-16T06:12:32.206Z,98.52
2023-04-16T06:15:01.203Z,98.46
2023-04-16T06:17:37.477Z,98.47
2023-04-16T06:20:08.959Z,98.48
2023-04-16T06:22:36.997Z,98.48
2023-04-16T06:25:06.401Z,98.44
2023-04-16T06:27:35.882Z,98.50
2023-04-16T06:30:04.046Z,98.49
2023-04-16T06:32:32.278Z,98.44
2023-04-16T06:35:00.697Z,98.47
2023-04-16T06:37:33.355Z,98.42
2023-04-16T06:40:02.306Z,98.50
2023-04-16T06:42:30.425Z,98.54
2023-04-16T06:45:01.429Z,98.52
2023-04-16T06:47:30.342Z,98.54
2023-04-16T06:50:03.451Z,98.42
2023-04-16T06:52:32.985Z,98.37
2023-04-16T06:55:01.917Z,98.44
2023-04-16T06:57:32.267Z,98.39
2023-04-16T07:00:01.685Z,98.42
2023-04-16T07:02:29.789Z,98.40
2023-04-16T07:04:57.981Z,98.36
2023-04-16T07:07:25.934Z,98.38
2023-04-16T07:09:55.684Z,98.35
2023-04-16T07:12:24.114Z,98.30
2023-04-16T07:14:53.566Z,98.12
2023-04-16T07:17:21.763Z,98.13
2023-04-16T07:19:49.944Z,98.17
2023-04-16T07:22:19.524Z,98.18
2023-04-16T07:24:49.661Z,98.20
2023-04-16T07:27:19.336Z,98.15
2023-04-16T07:29:49.917Z,98.08
2023-04-16T07:32:18.224Z,98.09
2023-04-16T07:34:46.538Z,98.12
2023-04-16T07:37:16.315Z,98.12
2023-04-16T07:39:45.412Z,98.13
2023-04-16T07:42:14.528Z,98.21
2023-04-16T07:44:45.614Z,98.27
2023-04-16T07:47:15.522Z,98.27
2023-04-16T07:49:44.193Z,98.18
2023-04-16T07:52:12.506Z,98.01
2023-04-16T07:54:41.041Z,98.07
2023-04-16T07:57:09.296Z,98.06
2023-04-16T07:59:37.852Z,98.06
2023-04-16T08:02:16.983Z,97.98
2023-04-16T08:04:45.586Z,97.93
2023-04-16T08:07:14.332Z,97.81
2023-04-16T08:09:48.722Z,97.64
2023-04-16T08:12:17.377Z,97.68
2023-04-16T08:14:46.813Z,97.76
2023-04-16T08:17:18.946Z,97.78
2023-04-16T08:19:47.134Z,97.71
2023-04-16T08:22:15.577Z,97.80
2023-04-16T08:24:43.628Z,97.81
2023-04-16T08:27:18.989Z,97.87
2023-04-16T08:29:48.227Z,97.90
2023-04-16T08:32:20.749Z,98.01
2023-04-16T08:34:49.232Z,98.03
2023-04-16T08:37:17.552Z,97.90
2023-04-16T08:39:45.670Z,97.75
2023-04-16T08:42:22.187Z,97.81
2023-04-16T08:44:50.791Z,97.81
2023-04-16T08:47:21.473Z,97.72
2023-04-16T08:49:51.535Z,97.68
2023-04-16T08:52:20.918Z,97.52
2023-04-16T08:54:56.888Z,97.47
2023-04-16T08:57:28.704Z,97.41
2023-04-16T08:59:57.316Z,97.45
2023-04-16T09:02:29.693Z,97.49
2023-04-16T09:05:00.163Z,97.50
2023-04-16T09:07:29.005Z,97.51
2023-04-16T09:09:59.530Z,97.54
2023-04-16T09:12:28.701Z,97.61
2023-04-16T09:14:59.837Z,97.51
2023-04-16T09:17:29.676Z,97.49
2023-04-16T09:19:57.862Z,97.35
2023-04-16T09:22:26.350Z,97.40
2023-04-16T09:24:54.660Z,97.49
2023-04-16T09:27:26.088Z,97.31
2023-04-16T09:29:54.535Z,97.13
2023-04-16T09:32:27.663Z,97.32
2023-04-16T09:34:58.831Z,97.30
2023-04-16T09:37:30.854Z,97.23
2023-04-16T09:39:59.955Z,96.98
2023-04-16T09:42:29.287Z,97.15
2023-04-16T09:45:01.960Z,97.14
2023-04-16T09:47:40.270Z,97.11
2023-04-16T09:50:12.641Z,97.19
2023-04-16T09:52:42.733Z,97.23
2023-04-16T09:55:10.894Z,97.26
2023-04-16T09:57:39.480Z,97.19
2023-04-16T10:00:09.430Z,97.26
2023-04-16T10:02:39.360Z,97.24
2023-04-16T10:05:09.786Z,97.33
2023-04-16T10:07:38.756Z,97.38
2023-04-16T10:10:08.354Z,97.65
2023-04-16T10:12:36.985Z,97.55
2023-04-16T10:15:05.914Z,97.36
2023-04-16T10:17:34.462Z,96.82
2023-04-16T10:20:03.396Z,96.75
2023-04-16T10:22:33.125Z,96.68
2023-04-16T10:25:01.548Z,96.38
2023-04-16T10:27:30.709Z,96.02
2023-04-16T10:30:00.545Z,96.07
2023-04-16T10:32:28.949Z,96.13
2023-04-16T10:34:57.306Z,95.97
2023-04-16T10:37:32.796Z,96.00
2023-04-16T10:40:00.853Z,95.85
2023-04-16T10:42:29.562Z,95.70
2023-04-16T10:45:00.614Z,95.64
2023-04-16T10:47:31.840Z,95.62
2023-04-16T10:50:00.008Z,95.71
2023-04-16T10:52:33.535Z,95.63
2023-04-16T10:55:02.285Z,95.43
2023-04-16T10:57:30.916Z,95.25
2023-04-16T10:59:59.556Z,95.35
2023-04-16T11:02:30.422Z,95.14
2023-04-16T11:04:59.994Z,95.21
2023-04-16T11:07:35.990Z,95.30
2023-04-16T11:10:06.803Z,95.05
2023-04-16T11:12:38.302Z,94.97
2023-04-16T11:15:08.332Z,94.93
2023-04-16T11:17:40.883Z,94.84
2023-04-16T11:20:17.911Z,94.96
2023-04-16T11:22:51.120Z,94.89
2023-04-16T11:25:22.915Z,95.05
2023-04-16T11:27:51.952Z,95.19
2023-04-16T11:30:29.137Z,95.19
2023-04-16T11:32:57.343Z,95.23
2023-04-16T11:35:27.420Z,95.36
2023-04-16T11:37:59.647Z,95.44
2023-04-16T11:40:32.348Z,95.36
2023-04-16T11:43:02.926Z,95.05
2023-04-16T11:45:31.172Z,95.00
2023-04-16T11:47:59.613Z,94.69
2023-04-16T11:50:28.992Z,94.37
2023-04-16T11:53:05.090Z,94.13
2023-04-16T11:55:34.294Z,93.91
2023-04-16T11:58:12.956Z,93.73
2023-04-16T12:00:41.830Z,93.40
2023-04-16T12:03:10.497Z,93.43
2023-04-16T12:05:40.650Z,93.27
2023-04-16T12:08:14.119Z,93.25
2023-04-16T12:10:54.798Z,93.17
2023-04-16T12:13:25.454Z,93.00
2023-04-16T12:15:55.800Z,93.00
2023-04-16T12:18:27.102Z,93.17
2023-04-16T12:20:59.074Z,93.26
2023-04-16T12:23:33.904Z,93.21
2023-04-16T12:26:12.738Z,93.25
2023-04-16T12:28:51.576Z,93.29
2023-04-16T12:31:38.472Z,93.28
2023-04-16T12:34:09.251Z,93.28
2023-04-16T12:36:42.077Z,93.20
2023-04-16T12:39:12.710Z,93.08
2023-04-16T12:41:48.272Z,93.04
2023-04-16T12:44:24.361Z,93.00
2023-04-16T12:46:54.126Z,92.93
2023-04-16T12:49:26.882Z,92.96
2023-04-16T12:51:57.475Z,92.82
2023-04-16T12:54:29.060Z,92.96
2023-04-16T12:56:57.896Z,93.00
2023-04-16T12:59:26.002Z,93.00
2023-04-16T13:01:56.576Z,92.81
2023-04-16T13:04:26.518Z,92.70
2023-04-16T13:06:57.556Z,92.68
2023-04-16T13:09:33.260Z,92.86
2023-04-16T13:12:03.301Z,92.99
2023-04-16T13:14:33.062Z,93.18
2023-04-16T13:17:03.317Z,93.28
2023-04-16T13:19:32.034Z,93.41
2023-04-16T13:22:00.401Z,93.46
2023-04-16T13:24:29.670Z,93.69
2023-04-16T13:27:02.635Z,93.91
2023-04-16T13:29:31.271Z,93.89
2023-04-16T13:32:00.175Z,94.15
2023-04-16T13:34:28.505Z,94.28
2023-04-16T13:36:56.590Z,94.25
2023-04-16T13:39:25.921Z,94.16
2023-04-16T13:41:55.259Z,94.21
2023-04-16T13:44:23.947Z,94.29
2023-04-16T13:46:51.983Z,94.22
2023-04-16T13:49:20.432Z,94.14
2023-04-16T13:51:48.423Z,94.14
2023-04-16T13:54:17.028Z,94.15
2023-04-16T13:56:47.939Z,94.24
2023-04-16T13:59:17.373Z,94.22
2023-04-16T14:01:46.782Z,94.05
2023-04-16T14:04:17.885Z,93.90
2023-04-16T14:06:49.019Z,93.88
2023-04-16T14:09:17.123Z,93.75
2023-04-16T14:11:53.269Z,93.41
2023-04-16T14:14:22.692Z,93.27
2023-04-16T14:16:58.277Z,93.00
2023-04-16T14:19:26.907Z,92.75
2023-04-16T14:22:28.844Z,92.26
2023-04-16T14:24:57.423Z,91.97
2023-04-16T14:27:26.332Z,91.84
2023-04-16T14:29:56.559Z,91.44
2023-04-16T14:32:34.222Z,91.40
2023-04-16T14:35:26.006Z,91.46
2023-04-16T14:37:58.760Z,91.61
2023-04-16T14:40:38.766Z,91.64
2023-04-16T14:43:14.278Z,91.58
2023-04-16T14:45:50.089Z,91.47
2023-04-16T14:48:19.226Z,91.34
2023-04-16T14:50:47.417Z,91.20
2023-04-16T14:53:16.029Z,91.31
2023-04-16T14:55:44.672Z,91.20
2023-04-16T14:58:13.400Z,90.99
2023-04-16T15:00:43.057Z,90.32
2023-04-16T15:03:17.419Z,89.65
2023-04-16T15:05:47.583Z,89.65
2023-04-16T15:08:16.281Z,89.35
2023-04-16T15:10:45.790Z,88.81
2023-04-16T15:13:16.240Z,88.87
2023-04-16T15:15:45.854Z,88.87
2023-04-16T15:18:18.774Z,88.57
2023-04-16T15:20:46.820Z,88.37
2023-04-16T15:23:15.516Z,88.36
2023-04-16T15:25:44.964Z,88.31
2023-04-16T15:28:13.402Z,88.40
2023-04-16T15:30:42.185Z,88.49
2023-04-16T15:33:10.907Z,88.65
2023-04-16T15:35:42.176Z,88.59
2023-04-16T15:38:11.472Z,88.42
2023-04-16T15:40:39.550Z,88.24
2023-04-16T15:43:08.602Z,87.83
2023-04-16T15:45:37.894Z,87.48
2023-04-16T15:48:07.194Z,87.42
2023-04-16T15:50:41.400Z,86.71
2023-04-16T15:53:11.018Z,86.41
2023-04-16T15:55:39.050Z,86.12
2023-04-16T15:58:07.354Z,86.27
2023-04-16T16:00:35.561Z,86.11
2023-04-16T16:03:04.499Z,85.58
2023-04-16T16:05:41.987Z,85.62
2023-04-16T16:08:14.860Z,85.18
2023-04-16T16:10:46.070Z,85.43
2023-04-16T16:13:18.654Z,85.51
2023-04-16T16:15:46.920Z,85.20
2023-04-16T16:18:15.122Z,84.90
2023-04-16T16:20:46.071Z,84.78
2023-04-16T16:23:22.453Z,85.03
2023-04-16T16:25:52.903Z,85.25
2023-04-16T16:28:25.594Z,85.40
2023-04-16T16:30:55.569Z,85.63
2023-04-16T16:33:25.333Z,85.92
2023-04-16T16:35:53.622Z,85.89
2023-04-16T16:38:27.055Z,86.08
2023-04-16T16:41:00.335Z,86.14
2023-04-16T16:43:28.532Z,86.43
2023-04-16T16:45:56.903Z,86.59
2023-04-16T16:48:25.370Z,86.50
2023-04-16T16:50:53.707Z,86.24
2023-04-16T16:53:40.279Z,86.54
2023-04-16T16:56:08.705Z,86.99
2023-04-16T16:58:40.072Z,86.70
2023-04-16T17:01:08.936Z,86.67
2023-04-16T17:03:37.581Z,86.68
2023-04-16T17:06:05.957Z,86.60
2023-04-16T17:08:36.250Z,86.19
2023-04-16T17:11:06.354Z,85.96
2023-04-16T17:13:36.593Z,85.86
2023-04-16T17:16:06.353Z,85.62
2023-04-16T17:18:43.288Z,85.60
2023-04-16T17:21:16.434Z,85.35
2023-04-16T17:23:45.138Z,85.09
2023-04-16T17:26:14.695Z,85.32
2023-04-16T17:28:43.422Z,85.42
2023-04-16T17:31:14.929Z,85.68
2023-04-16T17:33:43.548Z,85.95
2023-04-16T17:36:11.611Z,86.15
2023-04-16T17:38:40.598Z,86.20
2023-04-16T17:41:11.630Z,86.10
2023-04-16T17:43:41.576Z,86.46
2023-04-16T17:46:11.737Z,86.82
2023-04-16T17:48:43.910Z,87.11
2023-04-16T17:51:12.280Z,87.66
2023-04-16T17:53:43.716Z,88.15
2023-04-16T17:56:11.970Z,88.67
2023-04-16T17:58:41.443Z,89.12
2023-04-16T18:01:10.963Z,89.50
2023-04-16T18:03:40.599Z,89.93
2023-04-16T18:06:19.825Z,90.33
2023-04-16T18:08:47.960Z,90.66
2023-04-16T18:11:16.146Z,90.94
2023-04-16T18:13:46.528Z,91.31
2023-04-16T18:16:18.664Z,91.59
2023-04-16T18:18:48.996Z,91.86
2023-04-16T18:21:17.264Z,92.10
2023-04-16T18:23:45.693Z,92.36
2023-04-16T18:26:18.624Z,92.58
2023-04-16T18:28:51.190Z,92.79
2023-04-16T18:31:21.400Z,92.97
2023-04-16T18:33:56.364Z,93.13
2023-04-16T18:36:27.807Z,93.26
2023-04-16T18:39:02.181Z,93.40
2023-04-16T18:41:43.765Z,93.61
2023-04-16T18:44:13.172Z,93.78
2023-04-16T18:46:41.605Z,93.86
2023-04-16T18:49:10.329Z,94.05
2023-04-16T18:51:38.731Z,94.07
2023-04-16T18:54:07.031Z,94.21
2023-04-16T18:56:35.928Z,94.35
2023-04-16T18:59:05.108Z,94.46
2023-04-16T19:01:38.757Z,94.56
2023-04-16T19:04:07.897Z,94.61
2023-04-16T19:06:36.525Z,94.74
2023-04-16T19:09:05.562Z,94.80
2023-04-16T19:11:33.539Z,94.86
2023-04-16T19:14:05.690Z,94.94
2023-04-16T19:16:41.910Z,94.97
2023-04-16T19:19:11.328Z,94.99
2023-04-16T19:21:39.791Z,95.03
2023-04-16T19:24:09.184Z,95.02
2023-04-16T19:26:37.215Z,95.10
2023-04-16T19:29:05.589Z,95.17
2023-04-16T19:31:34.711Z,95.24
2023-04-16T19:34:05.821Z,95.29
2023-04-16T19:36:33.942Z,95.30
2023-04-16T19:39:02.118Z,95.35
2023-04-16T19:41:31.687Z,95.39
2023-04-16T19:43:59.761Z,95.41
2023-04-16T19:46:29.238Z,95.44
2023-04-16T19:48:57.761Z,95.54
2023-04-16T19:51:28.091Z,95.51
2023-04-16T19:53:56.692Z,95.53
2023-04-16T19:56:25.241Z,95.55
2023-04-16T19:58:54.074Z,95.60
2023-04-16T20:01:23.209Z,95.65
2023-04-16T20:03:51.814Z,95.70
2023-04-16T20:06:21.348Z,95.71
2023-04-16T20:08:50.730Z,95.74
2023-04-16T20:11:19.758Z,95.71
2023-04-16T20:13:51.717Z,95.71
2023-04-16T20:16:24.107Z,95.49
2023-04-16T20:19:03.618Z,95.31
2023-04-16T20:21:34.039Z,95.30
2023-04-16T20:24:12.884Z,95.33
2023-04-16T20:26:41.054Z,95.29
2023-04-16T20:29:10.801Z,95.28
2023-04-16T20:31:41.333Z,95.30
2023-04-16T20:34:09.800Z,95.14
2023-04-16T20:36:40.910Z,95.05
2023-04-16T20:39:10.811Z,94.97
2023-04-16T20:41:47.117Z,94.93
2023-04-16T20:44:18.385Z,94.90
2023-04-16T20:46:49.686Z,94.88
2023-04-16T20:49:18.619Z,94.87
2023-04-16T20:51:47.092Z,94.88
2023-04-16T20:54:18.642Z,94.84
2023-04-16T20:56:47.202Z,94.85
2023-04-16T20:59:17.676Z,94.80
2023-04-16T21:01:48.152Z,94.75
2023-04-16T21:04:16.708Z,94.79
2023-04-16T21:06:44.962Z,94.72
2023-04-16T21:09:13.613Z,94.59
2023-04-16T21:11:43.016Z,94.61
2023-04-16T21:14:12.087Z,94.56
2023-04-16T21:16:40.712Z,94.53
2023-04-16T21:19:09.996Z,94.52
2023-04-16T21:21:46.832Z,94.43
2023-04-16T21:24:15.390Z,94.38
2023-04-16T21:26:45.577Z,94.38
2023-04-16T21:29:13.952Z,94.34
2023-04-16T21:31:42.492Z,94.35
2023-04-16T21:34:13.298Z,94.40
2023-04-16T21:36:41.329Z,94.43
2023-04-16T21:39:09.656Z,94.47
2023-04-16T21:41:40.116Z,94.47
2023-04-16T21:44:11.511Z,94.51
2023-04-16T21:46:40.119Z,94.52
2023-04-16T21:49:08.389Z,94.55
2023-04-16T21:51:37.678Z,94.57
2023-04-16T21:54:08.725Z,94.61
2023-04-16T21:56:37.604Z,94.62
2023-04-16T21:59:05.818Z,94.62
2023-04-16T22:01:35.618Z,94.69
2023-04-16T22:04:03.972Z,94.69
2023-04-16T22:06:32.191Z,94.75
2023-04-16T22:09:02.126Z,94.77
2023-04-16T22:11:34.340Z,94.80
2023-04-16T22:14:03.049Z,94.82
2023-04-16T22:16:31.661Z,94.86
2023-04-16T22:19:03.835Z,94.92
2023-04-16T22:21:33.432Z,94.94
2023-04-16T22:24:01.969Z,94.96
2023-04-16T22:26:30.111Z,94.99
2023-04-16T22:28:58.293Z,94.96
2023-04-16T22:31:26.475Z,94.99
2023-04-16T22:33:55.128Z,95.04
2023-04-16T22:36:24.683Z,95.02
2023-04-16T22:38:54.064Z,95.06
2023-04-16T22:41:23.463Z,95.03
2023-04-16T22:43:52.759Z,95.05
2023-04-16T22:46:22.347Z,95.08
2023-04-16T22:48:51.817Z,95.11
2023-04-16T22:51:21.640Z,95.08
2023-04-16T22:53:53.375Z,95.05
2023-04-16T22:56:23.381Z,95.07
2023-04-16T22:58:52.848Z,95.10
2023-04-16T23:01:21.469Z,95.16
2023-04-16T23:03:49.884Z,95.12
2023-04-16T23:06:18.119Z,95.18
2023-04-16T23:08:46.533Z,95.14
2023-04-16T23:11:16.509Z,95.19
2023-04-16T23:13:49.057Z,95.18
2023-04-16T23:16:17.422Z,95.19
2023-04-16T23:18:45.712Z,95.17
2023-04-16T23:21:15.246Z,95.15
2023-04-16T23:23:44.300Z,95.23
2023-04-16T23:26:12.792Z,95.23
2023-04-16T23:28:42.859Z,95.20
2023-04-16T23:31:11.406Z,95.16
2023-04-16T23:33:39.649Z,95.19
2023-04-16T23:36:08.887Z,95.15
2023-04-16T23:38:40.266Z,95.10
2023-04-16T23:41:08.976Z,95.11
2023-04-16T23:43:40.100Z,95.10
2023-04-16T23:46:10.724Z,95.08
2023-04-16T23:48:39.336Z,95.13
2023-04-16T23:51:07.778Z,95.16
2023-04-16T23:53:36.870Z,95.16
2023-04-16T23:56:05.554Z,95.14
2023-04-16T23:58:33.719Z,95.13
